sensor_id;sensor_type;location;lat;lon;timestamp;P1;durP1;ratioP1;P2;durP2;ratioP2
3769;SDS011;1900;48.890;9.190;2024-03-17T00:02:10;12.47;;;9.30;;
3769;SDS011;1900;48.890;9.190;2024-03-17T00:04:36;10.30;;;8.60;;
3769;SDS011;1900;48.890;9.190;2024-03-17T00:07:01;13.20;;;9.20;;
3769;SDS011;1900;48.890;9.190;2024-03-17T00:09:27;14.53;;;9.70;;
3769;SDS011;1900;48.890;9.190;2024-03-17T00:11:54;13.30;;;8.30;;
3769;SDS011;1900;48.890;9.190;2024-03-17T00:14:20;11.87;;;8.53;;
3769;SDS011;1900;48.890;9.190;2024-03-17T00:16:47;15.50;;;8.40;;
3769;SDS011;1900;48.890;9.190;2024-03-17T00:19:14;14.67;;;10.00;;
3769;SDS011;1900;48.890;9.190;2024-03-17T00:21:42;13.60;;;9.07;;
3769;SDS011;1900;48.890;9.190;2024-03-17T00:24:08;13.77;;;8.97;;
3769;SDS011;1900;48.890;9.190;2024-03-17T00:26:35;11.43;;;9.90;;
3769;SDS011;1900;48.890;9.190;2024-03-17T00:29:00;13.93;;;9.07;;
3769;SDS011;1900;48.890;9.190;2024-03-17T00:31:28;14.00;;;9.43;;
3769;SDS011;1900;48.890;9.190;2024-03-17T00:33:54;13.53;;;7.83;;
3769;SDS011;1900;48.890;9.190;2024-03-17T00:36:19;12.67;;;9.03;;
3769;SDS011;1900;48.890;9.190;2024-03-17T00:38:45;16.33;;;8.93;;
3769;SDS011;1900;48.890;9.190;2024-03-17T00:41:11;9.97;;;8.40;;
3769;SDS011;1900;48.890;9.190;2024-03-17T00:43:37;12.43;;;8.83;;
3769;SDS011;1900;48.890;9.190;2024-03-17T00:46:03;10.80;;;8.83;;
3769;SDS011;1900;48.890;9.190;2024-03-17T00:48:29;15.17;;;8.57;;
3769;SDS011;1900;48.890;9.190;2024-03-17T00:50:57;10.37;;;8.90;;
3769;SDS011;1900;48.890;9.190;2024-03-17T00:53:24;12.70;;;8.73;;
3769;SDS011;1900;48.890;9.190;2024-03-17T00:55:51;14.30;;;9.73;;
3769;SDS011;1900;48.890;9.190;2024-03-17T00:58:23;14.00;;;9.27;;
3769;SDS011;1900;48.890;9.190;2024-03-17T01:00:49;14.03;;;10.33;;
3769;SDS011;1900;48.890;9.190;2024-03-17T01:03:18;20.83;;;12.07;;
3769;SDS011;1900;48.890;9.190;2024-03-17T01:05:44;20.40;;;14.00;;
3769;SDS011;1900;48.890;9.190;2024-03-17T01:08:12;18.20;;;11.10;;
3769;SDS011;1900;48.890;9.190;2024-03-17T01:10:39;16.70;;;11.63;;
3769;SDS011;1900;48.890;9.190;2024-03-17T01:13:06;16.93;;;11.40;;
3769;SDS011;1900;48.890;9.190;2024-03-17T01:15:33;19.47;;;13.00;;
3769;SDS011;1900;48.890;9.190;2024-03-17T01:17:59;18.63;;;12.60;;
3769;SDS011;1900;48.890;9.190;2024-03-17T01:20:26;21.60;;;13.50;;
3769;SDS011;1900;48.890;9.190;2024-03-17T01:22:51;34.00;;;15.00;;
3769;SDS011;1900;48.890;9.190;2024-03-17T01:25:17;22.83;;;15.20;;
3769;SDS011;1900;48.890;9.190;2024-03-17T01:27:43;18.67;;;13.87;;
3769;SDS011;1900;48.890;9.190;2024-03-17T01:30:10;32.30;;;16.30;;
3769;SDS011;1900;48.890;9.190;2024-03-17T01:32:36;30.83;;;15.30;;
3769;SDS011;1900;48.890;9.190;2024-03-17T01:35:01;25.27;;;14.57;;
3769;SDS011;1900;48.890;9.190;2024-03-17T01:37:27;22.10;;;13.73;;
3769;SDS011;1900;48.890;9.190;2024-03-17T01:39:57;23.60;;;14.07;;
3769;SDS011;1900;48.890;9.190;2024-03-17T01:42:23;29.80;;;14.63;;
3769;SDS011;1900;48.890;9.190;2024-03-17T01:44:49;19.53;;;12.57;;
3769;SDS011;1900;48.890;9.190;2024-03-17T01:47:16;17.03;;;12.57;;
3769;SDS011;1900;48.890;9.190;2024-03-17T01:49:44;21.80;;;13.83;;
3769;SDS011;1900;48.890;9.190;2024-03-17T01:52:12;21.63;;;12.30;;
3769;SDS011;1900;48.890;9.190;2024-03-17T01:54:40;22.97;;;11.80;;
3769;SDS011;1900;48.890;9.190;2024-03-17T01:57:07;29.17;;;12.27;;
3769;SDS011;1900;48.890;9.190;2024-03-17T01:59:33;18.57;;;10.90;;
3769;SDS011;1900;48.890;9.190;2024-03-17T02:01:59;15.53;;;10.60;;
3769;SDS011;1900;48.890;9.190;2024-03-17T02:04:25;20.27;;;12.60;;
3769;SDS011;1900;48.890;9.190;2024-03-17T02:06:51;20.97;;;11.80;;
3769;SDS011;1900;48.890;9.190;2024-03-17T02:09:16;19.93;;;12.50;;
3769;SDS011;1900;48.890;9.190;2024-03-17T02:11:44;24.80;;;13.47;;
3769;SDS011;1900;48.890;9.190;2024-03-17T02:14:11;19.37;;;10.90;;
3769;SDS011;1900;48.890;9.190;2024-03-17T02:16:39;23.27;;;11.30;;
3769;SDS011;1900;48.890;9.190;2024-03-17T02:19:06;17.30;;;11.53;;
3769;SDS011;1900;48.890;9.190;2024-03-17T02:21:31;17.70;;;10.50;;
3769;SDS011;1900;48.890;9.190;2024-03-17T02:23:57;20.30;;;9.00;;
3769;SDS011;1900;48.890;9.190;2024-03-17T02:26:24;15.13;;;9.43;;
3769;SDS011;1900;48.890;9.190;2024-03-17T02:28:51;12.60;;;8.30;;
3769;SDS011;1900;48.890;9.190;2024-03-17T02:31:17;12.90;;;8.40;;
3769;SDS011;1900;48.890;9.190;2024-03-17T02:33:43;12.50;;;8.33;;
3769;SDS011;1900;48.890;9.190;2024-03-17T02:36:10;16.93;;;9.10;;
3769;SDS011;1900;48.890;9.190;2024-03-17T02:38:37;12.20;;;8.90;;
3769;SDS011;1900;48.890;9.190;2024-03-17T02:41:23;21.10;;;9.90;;
3769;SDS011;1900;48.890;9.190;2024-03-17T02:43:49;14.97;;;8.90;;
3769;SDS011;1900;48.890;9.190;2024-03-17T02:46:15;13.43;;;9.43;;
3769;SDS011;1900;48.890;9.190;2024-03-17T02:48:43;13.50;;;9.03;;
3769;SDS011;1900;48.890;9.190;2024-03-17T02:51:12;16.47;;;9.53;;
3769;SDS011;1900;48.890;9.190;2024-03-17T02:53:43;16.57;;;9.60;;
3769;SDS011;1900;48.890;9.190;2024-03-17T02:56:10;17.20;;;8.83;;
3769;SDS011;1900;48.890;9.190;2024-03-17T02:58:37;15.03;;;9.17;;
3769;SDS011;1900;48.890;9.190;2024-03-17T03:01:04;13.37;;;8.87;;
3769;SDS011;1900;48.890;9.190;2024-03-17T03:03:30;12.43;;;8.80;;
3769;SDS011;1900;48.890;9.190;2024-03-17T03:05:57;15.00;;;9.57;;
3769;SDS011;1900;48.890;9.190;2024-03-17T03:08:23;12.27;;;8.70;;
3769;SDS011;1900;48.890;9.190;2024-03-17T03:10:49;13.20;;;9.20;;
3769;SDS011;1900;48.890;9.190;2024-03-17T03:13:16;14.13;;;8.67;;
3769;SDS011;1900;48.890;9.190;2024-03-17T03:15:41;19.97;;;9.40;;
3769;SDS011;1900;48.890;9.190;2024-03-17T03:18:08;22.10;;;9.63;;
3769;SDS011;1900;48.890;9.190;2024-03-17T03:20:34;17.17;;;8.57;;
3769;SDS011;1900;48.890;9.190;2024-03-17T03:23:00;15.90;;;10.20;;
3769;SDS011;1900;48.890;9.190;2024-03-17T03:25:27;11.83;;;8.00;;
3769;SDS011;1900;48.890;9.190;2024-03-17T03:27:55;16.30;;;9.77;;
3769;SDS011;1900;48.890;9.190;2024-03-17T03:30:22;22.73;;;9.37;;
3769;SDS011;1900;48.890;9.190;2024-03-17T03:32:49;28.77;;;8.67;;
3769;SDS011;1900;48.890;9.190;2024-03-17T03:35:15;11.47;;;6.80;;
3769;SDS011;1900;48.890;9.190;2024-03-17T03:37:41;20.97;;;8.10;;
3769;SDS011;1900;48.890;9.190;2024-03-17T03:40:07;12.10;;;7.93;;
3769;SDS011;1900;48.890;9.190;2024-03-17T03:42:41;7.73;;;6.93;;
3769;SDS011;1900;48.890;9.190;2024-03-17T03:45:08;15.70;;;5.93;;
3769;SDS011;1900;48.890;9.190;2024-03-17T03:47:40;12.47;;;6.73;;
3769;SDS011;1900;48.890;9.190;2024-03-17T03:50:10;9.67;;;6.87;;
3769;SDS011;1900;48.890;9.190;2024-03-17T03:52:36;7.03;;;6.20;;
3769;SDS011;1900;48.890;9.190;2024-03-17T03:55:03;12.90;;;6.87;;
3769;SDS011;1900;48.890;9.190;2024-03-17T03:57:32;7.13;;;5.97;;
3769;SDS011;1900;48.890;9.190;2024-03-17T04:00:08;8.53;;;6.07;;
3769;SDS011;1900;48.890;9.190;2024-03-17T04:02:43;9.50;;;6.07;;
3769;SDS011;1900;48.890;9.190;2024-03-17T04:05:09;7.33;;;5.90;;
3769;SDS011;1900;48.890;9.190;2024-03-17T04:07:36;6.27;;;5.57;;
3769;SDS011;1900;48.890;9.190;2024-03-17T04:10:03;7.90;;;5.80;;
3769;SDS011;1900;48.890;9.190;2024-03-17T04:12:29;7.33;;;5.63;;
3769;SDS011;1900;48.890;9.190;2024-03-17T04:14:59;6.97;;;5.83;;
3769;SDS011;1900;48.890;9.190;2024-03-17T04:17:25;6.50;;;5.70;;
3769;SDS011;1900;48.890;9.190;2024-03-17T04:19:52;9.40;;;5.70;;
3769;SDS011;1900;48.890;9.190;2024-03-17T04:22:19;5.90;;;5.30;;
3769;SDS011;1900;48.890;9.190;2024-03-17T04:24:46;7.10;;;5.90;;
3769;SDS011;1900;48.890;9.190;2024-03-17T04:27:14;8.00;;;5.97;;
3769;SDS011;1900;48.890;9.190;2024-03-17T04:29:40;6.83;;;5.43;;
3769;SDS011;1900;48.890;9.190;2024-03-17T04:32:06;6.23;;;5.63;;
3769;SDS011;1900;48.890;9.190;2024-03-17T04:34:32;6.90;;;5.17;;
3769;SDS011;1900;48.890;9.190;2024-03-17T04:36:58;7.67;;;5.40;;
3769;SDS011;1900;48.890;9.190;2024-03-17T04:39:24;7.37;;;5.80;;
3769;SDS011;1900;48.890;9.190;2024-03-17T04:41:50;6.70;;;5.37;;
3769;SDS011;1900;48.890;9.190;2024-03-17T04:44:16;6.83;;;5.87;;
3769;SDS011;1900;48.890;9.190;2024-03-17T04:46:43;8.30;;;5.60;;
3769;SDS011;1900;48.890;9.190;2024-03-17T04:49:09;7.77;;;5.90;;
3769;SDS011;1900;48.890;9.190;2024-03-17T04:51:35;7.17;;;5.47;;
3769;SDS011;1900;48.890;9.190;2024-03-17T04:54:01;14.83;;;6.50;;
3769;SDS011;1900;48.890;9.190;2024-03-17T04:56:32;6.40;;;5.20;;
3769;SDS011;1900;48.890;9.190;2024-03-17T04:58:58;9.67;;;6.80;;
3769;SDS011;1900;48.890;9.190;2024-03-17T05:01:24;8.07;;;5.90;;
3769;SDS011;1900;48.890;9.190;2024-03-17T05:03:53;8.80;;;6.27;;
3769;SDS011;1900;48.890;9.190;2024-03-17T05:06:19;7.97;;;5.33;;
3769;SDS011;1900;48.890;9.190;2024-03-17T05:08:45;6.57;;;5.83;;
3769;SDS011;1900;48.890;9.190;2024-03-17T05:11:10;6.93;;;5.47;;
3769;SDS011;1900;48.890;9.190;2024-03-17T05:13:37;9.07;;;5.60;;
3769;SDS011;1900;48.890;9.190;2024-03-17T05:16:03;5.70;;;5.07;;
3769;SDS011;1900;48.890;9.190;2024-03-17T05:18:31;6.30;;;5.33;;
3769;SDS011;1900;48.890;9.190;2024-03-17T05:21:03;6.93;;;5.43;;
3769;SDS011;1900;48.890;9.190;2024-03-17T05:23:31;6.20;;;5.23;;
3769;SDS011;1900;48.890;9.190;2024-03-17T05:26:02;6.03;;;5.43;;
3769;SDS011;1900;48.890;9.190;2024-03-17T05:28:29;5.27;;;4.77;;
3769;SDS011;1900;48.890;9.190;2024-03-17T05:30:56;8.07;;;5.60;;
3769;SDS011;1900;48.890;9.190;2024-03-17T05:33:22;6.60;;;5.30;;
3769;SDS011;1900;48.890;9.190;2024-03-17T05:35:53;7.23;;;5.30;;
3769;SDS011;1900;48.890;9.190;2024-03-17T05:38:20;6.63;;;5.10;;
3769;SDS011;1900;48.890;9.190;2024-03-17T05:43:25;5.17;;;4.13;;
3769;SDS011;1900;48.890;9.190;2024-03-17T05:45:52;5.27;;;4.30;;
3769;SDS011;1900;48.890;9.190;2024-03-17T05:48:19;4.50;;;4.10;;
3769;SDS011;1900;48.890;9.190;2024-03-17T05:50:45;5.00;;;4.03;;
3769;SDS011;1900;48.890;9.190;2024-03-17T05:53:11;4.27;;;3.77;;
3769;SDS011;1900;48.890;9.190;2024-03-17T05:55:39;4.70;;;4.10;;
3769;SDS011;1900;48.890;9.190;2024-03-17T05:58:06;4.37;;;3.97;;
3769;SDS011;1900;48.890;9.190;2024-03-17T06:00:36;4.60;;;4.20;;
3769;SDS011;1900;48.890;9.190;2024-03-17T06:03:03;4.43;;;3.90;;
3769;SDS011;1900;48.890;9.190;2024-03-17T06:05:32;6.40;;;4.87;;
3769;SDS011;1900;48.890;9.190;2024-03-17T06:08:02;5.37;;;4.33;;
3769;SDS011;1900;48.890;9.190;2024-03-17T06:10:30;5.70;;;4.37;;
3769;SDS011;1900;48.890;9.190;2024-03-17T06:12:57;4.80;;;4.00;;
3769;SDS011;1900;48.890;9.190;2024-03-17T06:15:25;4.87;;;4.03;;
3769;SDS011;1900;48.890;9.190;2024-03-17T06:17:51;5.13;;;4.63;;
3769;SDS011;1900;48.890;9.190;2024-03-17T06:20:18;4.33;;;3.93;;
3769;SDS011;1900;48.890;9.190;2024-03-17T06:22:45;5.90;;;4.33;;
3769;SDS011;1900;48.890;9.190;2024-03-17T06:25:11;4.87;;;4.30;;
3769;SDS011;1900;48.890;9.190;2024-03-17T06:27:37;7.70;;;4.17;;
3769;SDS011;1900;48.890;9.190;2024-03-17T06:30:03;4.73;;;4.23;;
3769;SDS011;1900;48.890;9.190;2024-03-17T06:32:30;5.50;;;4.77;;
3769;SDS011;1900;48.890;9.190;2024-03-17T06:34:57;5.10;;;4.60;;
3769;SDS011;1900;48.890;9.190;2024-03-17T06:37:23;5.43;;;4.93;;
3769;SDS011;1900;48.890;9.190;2024-03-17T06:39:49;4.93;;;4.43;;
3769;SDS011;1900;48.890;9.190;2024-03-17T06:42:15;9.50;;;5.67;;
3769;SDS011;1900;48.890;9.190;2024-03-17T06:44:41;6.77;;;6.07;;
3769;SDS011;1900;48.890;9.190;2024-03-17T06:47:08;5.10;;;4.60;;
3769;SDS011;1900;48.890;9.190;2024-03-17T06:49:35;5.20;;;4.70;;
3769;SDS011;1900;48.890;9.190;2024-03-17T06:52:01;6.17;;;4.23;;
3769;SDS011;1900;48.890;9.190;2024-03-17T06:54:26;5.60;;;4.60;;
3769;SDS011;1900;48.890;9.190;2024-03-17T06:56:52;8.03;;;4.97;;
3769;SDS011;1900;48.890;9.190;2024-03-17T06:59:18;7.60;;;5.00;;
3769;SDS011;1900;48.890;9.190;2024-03-17T07:01:46;11.03;;;4.83;;
3769;SDS011;1900;48.890;9.190;2024-03-17T07:04:15;10.83;;;5.40;;
3769;SDS011;1900;48.890;9.190;2024-03-17T07:06:46;8.00;;;5.30;;
3769;SDS011;1900;48.890;9.190;2024-03-17T07:09:12;11.27;;;5.90;;
3769;SDS011;1900;48.890;9.190;2024-03-17T07:11:37;6.43;;;5.40;;
3769;SDS011;1900;48.890;9.190;2024-03-17T07:14:03;6.97;;;4.53;;
3769;SDS011;1900;48.890;9.190;2024-03-17T07:16:29;8.13;;;5.37;;
3769;SDS011;1900;48.890;9.190;2024-03-17T07:19:00;8.13;;;4.60;;
3769;SDS011;1900;48.890;9.190;2024-03-17T07:21:27;7.03;;;5.23;;
3769;SDS011;1900;48.890;9.190;2024-03-17T07:23:53;10.70;;;6.43;;
3769;SDS011;1900;48.890;9.190;2024-03-17T07:26:18;8.30;;;6.20;;
3769;SDS011;1900;48.890;9.190;2024-03-17T07:28:44;7.90;;;6.67;;
3769;SDS011;1900;48.890;9.190;2024-03-17T07:31:10;11.23;;;7.30;;
3769;SDS011;1900;48.890;9.190;2024-03-17T07:33:36;9.33;;;6.30;;
3769;SDS011;1900;48.890;9.190;2024-03-17T07:36:02;8.97;;;7.10;;
3769;SDS011;1900;48.890;9.190;2024-03-17T07:38:30;9.33;;;6.97;;
3769;SDS011;1900;48.890;9.190;2024-03-17T07:41:03;10.07;;;6.93;;
3769;SDS011;1900;48.890;9.190;2024-03-17T07:43:31;11.80;;;7.83;;
3769;SDS011;1900;48.890;9.190;2024-03-17T07:46:02;13.10;;;8.43;;
3769;SDS011;1900;48.890;9.190;2024-03-17T07:48:30;11.03;;;7.93;;
3769;SDS011;1900;48.890;9.190;2024-03-17T07:51:00;33.40;;;19.80;;
3769;SDS011;1900;48.890;9.190;2024-03-17T07:53:40;14.80;;;10.30;;
3769;SDS011;1900;48.890;9.190;2024-03-17T07:56:11;10.47;;;7.60;;
3769;SDS011;1900;48.890;9.190;2024-03-17T07:58:39;16.50;;;8.20;;
3769;SDS011;1900;48.890;9.190;2024-03-17T08:01:07;11.27;;;7.80;;
3769;SDS011;1900;48.890;9.190;2024-03-17T08:03:40;11.60;;;8.63;;
3769;SDS011;1900;48.890;9.190;2024-03-17T08:06:09;10.90;;;7.37;;
3769;SDS011;1900;48.890;9.190;2024-03-17T08:08:36;10.37;;;7.30;;
3769;SDS011;1900;48.890;9.190;2024-03-17T08:11:02;10.23;;;7.83;;
3769;SDS011;1900;48.890;9.190;2024-03-17T08:13:28;14.90;;;8.20;;
3769;SDS011;1900;48.890;9.190;2024-03-17T08:16:00;13.07;;;8.63;;
3769;SDS011;1900;48.890;9.190;2024-03-17T08:18:28;18.97;;;12.80;;
3769;SDS011;1900;48.890;9.190;2024-03-17T08:20:53;11.63;;;8.67;;
3769;SDS011;1900;48.890;9.190;2024-03-17T08:23:20;11.23;;;7.90;;
3769;SDS011;1900;48.890;9.190;2024-03-17T08:25:59;11.37;;;7.77;;
3769;SDS011;1900;48.890;9.190;2024-03-17T08:28:26;11.50;;;7.83;;
3769;SDS011;1900;48.890;9.190;2024-03-17T08:33:23;10.23;;;8.00;;
3769;SDS011;1900;48.890;9.190;2024-03-17T08:35:56;13.07;;;8.97;;
3769;SDS011;1900;48.890;9.190;2024-03-17T08:38:27;11.77;;;8.87;;
3769;SDS011;1900;48.890;9.190;2024-03-17T08:40:54;16.23;;;10.60;;
3769;SDS011;1900;48.890;9.190;2024-03-17T08:43:21;11.83;;;8.60;;
3769;SDS011;1900;48.890;9.190;2024-03-17T08:46:02;10.63;;;8.23;;
3769;SDS011;1900;48.890;9.190;2024-03-17T08:48:31;13.30;;;9.50;;
3769;SDS011;1900;48.890;9.190;2024-03-17T08:50:58;16.03;;;9.43;;
3769;SDS011;1900;48.890;9.190;2024-03-17T08:53:25;12.20;;;8.80;;
3769;SDS011;1900;48.890;9.190;2024-03-17T08:55:52;15.07;;;8.83;;
3769;SDS011;1900;48.890;9.190;2024-03-17T08:58:18;15.30;;;10.50;;
3769;SDS011;1900;48.890;9.190;2024-03-17T09:00:44;12.23;;;8.97;;
3769;SDS011;1900;48.890;9.190;2024-03-17T09:03:10;11.43;;;8.60;;
3769;SDS011;1900;48.890;9.190;2024-03-17T09:05:40;10.50;;;8.50;;
3769;SDS011;1900;48.890;9.190;2024-03-17T09:08:18;9.77;;;8.47;;
3769;SDS011;1900;48.890;9.190;2024-03-17T09:10:45;10.23;;;7.90;;
3769;SDS011;1900;48.890;9.190;2024-03-17T09:13:15;11.53;;;8.30;;
3769;SDS011;1900;48.890;9.190;2024-03-17T09:18:22;12.43;;;7.70;;
3769;SDS011;1900;48.890;9.190;2024-03-17T09:20:58;9.23;;;6.73;;
3769;SDS011;1900;48.890;9.190;2024-03-17T09:23:24;9.10;;;6.70;;
3769;SDS011;1900;48.890;9.190;2024-03-17T09:26:09;10.93;;;6.70;;
3769;SDS011;1900;48.890;9.190;2024-03-17T09:28:41;8.30;;;6.97;;
3769;SDS011;1900;48.890;9.190;2024-03-17T09:31:06;8.40;;;7.50;;
3769;SDS011;1900;48.890;9.190;2024-03-17T09:33:32;10.53;;;7.30;;
3769;SDS011;1900;48.890;9.190;2024-03-17T09:36:00;8.83;;;7.07;;
3769;SDS011;1900;48.890;9.190;2024-03-17T09:38:28;11.13;;;8.10;;
3769;SDS011;1900;48.890;9.190;2024-03-17T09:40:54;12.53;;;8.17;;
3769;SDS011;1900;48.890;9.190;2024-03-17T09:43:27;12.00;;;8.70;;
3769;SDS011;1900;48.890;9.190;2024-03-17T09:45:53;13.80;;;9.30;;
3769;SDS011;1900;48.890;9.190;2024-03-17T09:48:26;13.43;;;8.50;;
3769;SDS011;1900;48.890;9.190;2024-03-17T09:50:54;13.63;;;8.77;;
3769;SDS011;1900;48.890;9.190;2024-03-17T09:53:28;11.63;;;9.00;;
3769;SDS011;1900;48.890;9.190;2024-03-17T09:55:57;12.67;;;8.77;;
3769;SDS011;1900;48.890;9.190;2024-03-17T09:58:24;10.83;;;8.50;;
3769;SDS011;1900;48.890;9.190;2024-03-17T10:00:50;11.07;;;8.17;;
3769;SDS011;1900;48.890;9.190;2024-03-17T10:06:06;14.77;;;8.90;;
3769;SDS011;1900;48.890;9.190;2024-03-17T10:08:32;14.20;;;8.90;;
3769;SDS011;1900;48.890;9.190;2024-03-17T10:10:59;12.50;;;8.10;;
3769;SDS011;1900;48.890;9.190;2024-03-17T10:13:25;12.00;;;8.53;;
3769;SDS011;1900;48.890;9.190;2024-03-17T10:15:51;11.40;;;8.17;;
3769;SDS011;1900;48.890;9.190;2024-03-17T10:18:20;11.00;;;8.07;;
3769;SDS011;1900;48.890;9.190;2024-03-17T10:20:48;10.60;;;8.47;;
3769;SDS011;1900;48.890;9.190;2024-03-17T10:23:21;12.20;;;8.47;;
3769;SDS011;1900;48.890;9.190;2024-03-17T10:25:48;9.67;;;8.07;;
3769;SDS011;1900;48.890;9.190;2024-03-17T10:28:15;8.77;;;7.50;;
3769;SDS011;1900;48.890;9.190;2024-03-17T10:30:42;11.07;;;7.73;;
3769;SDS011;1900;48.890;9.190;2024-03-17T10:33:25;11.67;;;7.90;;
3769;SDS011;1900;48.890;9.190;2024-03-17T10:35:58;10.30;;;6.93;;
3769;SDS011;1900;48.890;9.190;2024-03-17T10:38:26;8.33;;;6.20;;
3769;SDS011;1900;48.890;9.190;2024-03-17T10:40:54;7.97;;;5.90;;
3769;SDS011;1900;48.890;9.190;2024-03-17T10:43:21;8.63;;;6.50;;
3769;SDS011;1900;48.890;9.190;2024-03-17T10:45:53;10.30;;;6.43;;
3769;SDS011;1900;48.890;9.190;2024-03-17T10:48:23;7.73;;;5.80;;
3769;SDS011;1900;48.890;9.190;2024-03-17T10:50:57;7.60;;;6.00;;
3769;SDS011;1900;48.890;9.190;2024-03-17T10:53:27;7.03;;;6.33;;
3769;SDS011;1900;48.890;9.190;2024-03-17T10:56:01;5.63;;;4.93;;
3769;SDS011;1900;48.890;9.190;2024-03-17T10:58:38;8.10;;;6.13;;
3769;SDS011;1900;48.890;9.190;2024-03-17T11:01:12;7.50;;;5.30;;
3769;SDS011;1900;48.890;9.190;2024-03-17T11:03:39;7.63;;;5.20;;
3769;SDS011;1900;48.890;9.190;2024-03-17T11:06:06;7.20;;;5.23;;
3769;SDS011;1900;48.890;9.190;2024-03-17T11:08:33;8.30;;;5.83;;
3769;SDS011;1900;48.890;9.190;2024-03-17T11:11:01;12.13;;;5.73;;
3769;SDS011;1900;48.890;9.190;2024-03-17T11:13:29;4.63;;;4.23;;
3769;SDS011;1900;48.890;9.190;2024-03-17T11:15:56;7.23;;;5.20;;
3769;SDS011;1900;48.890;9.190;2024-03-17T11:20:59;6.40;;;4.23;;
3769;SDS011;1900;48.890;9.190;2024-03-17T11:23:40;6.53;;;4.80;;
3769;SDS011;1900;48.890;9.190;2024-03-17T11:26:07;12.23;;;5.27;;
3769;SDS011;1900;48.890;9.190;2024-03-17T11:36:54;7.37;;;4.77;;
3769;SDS011;1900;48.890;9.190;2024-03-17T11:39:21;5.80;;;4.90;;
3769;SDS011;1900;48.890;9.190;2024-03-17T11:42:23;6.60;;;4.33;;
3769;SDS011;1900;48.890;9.190;2024-03-17T11:45:00;6.50;;;4.90;;
3769;SDS011;1900;48.890;9.190;2024-03-17T11:47:39;4.83;;;4.10;;
3769;SDS011;1900;48.890;9.190;2024-03-17T11:50:09;7.60;;;4.20;;
3769;SDS011;1900;48.890;9.190;2024-03-17T11:52:38;7.00;;;4.80;;
3769;SDS011;1900;48.890;9.190;2024-03-17T11:55:14;5.57;;;3.67;;
3769;SDS011;1900;48.890;9.190;2024-03-17T11:57:41;9.50;;;4.43;;
3769;SDS011;1900;48.890;9.190;2024-03-17T12:00:27;8.17;;;4.60;;
3769;SDS011;1900;48.890;9.190;2024-03-17T12:02:54;9.27;;;5.17;;
3769;SDS011;1900;48.890;9.190;2024-03-17T12:05:20;8.10;;;4.67;;
3769;SDS011;1900;48.890;9.190;2024-03-17T12:07:46;7.23;;;4.03;;
3769;SDS011;1900;48.890;9.190;2024-03-17T12:10:13;4.93;;;4.00;;
3769;SDS011;1900;48.890;9.190;2024-03-17T12:12:39;4.87;;;4.20;;
3769;SDS011;1900;48.890;9.190;2024-03-17T12:15:16;8.23;;;4.30;;
3769;SDS011;1900;48.890;9.190;2024-03-17T12:17:44;4.60;;;3.63;;
3769;SDS011;1900;48.890;9.190;2024-03-17T12:20:17;8.07;;;4.40;;
3769;SDS011;1900;48.890;9.190;2024-03-17T12:22:44;10.97;;;5.30;;
3769;SDS011;1900;48.890;9.190;2024-03-17T12:25:16;7.90;;;4.90;;
3769;SDS011;1900;48.890;9.190;2024-03-17T12:27:45;7.30;;;4.40;;
3769;SDS011;1900;48.890;9.190;2024-03-17T12:30:22;6.03;;;4.10;;
3769;SDS011;1900;48.890;9.190;2024-03-17T12:32:48;7.10;;;4.40;;
3769;SDS011;1900;48.890;9.190;2024-03-17T12:35:15;7.23;;;4.57;;
3769;SDS011;1900;48.890;9.190;2024-03-17T12:37:43;7.40;;;5.37;;
3769;SDS011;1900;48.890;9.190;2024-03-17T12:40:19;6.73;;;4.00;;
3769;SDS011;1900;48.890;9.190;2024-03-17T12:42:50;6.87;;;4.70;;
3769;SDS011;1900;48.890;9.190;2024-03-17T12:45:20;8.30;;;4.20;;
3769;SDS011;1900;48.890;9.190;2024-03-17T12:47:47;5.07;;;4.23;;
3769;SDS011;1900;48.890;9.190;2024-03-17T12:50:14;5.00;;;4.17;;
3769;SDS011;1900;48.890;9.190;2024-03-17T12:52:40;5.13;;;3.87;;
3769;SDS011;1900;48.890;9.190;2024-03-17T12:55:18;8.73;;;4.50;;
3769;SDS011;1900;48.890;9.190;2024-03-17T13:00:49;4.87;;;3.87;;
3769;SDS011;1900;48.890;9.190;2024-03-17T13:03:25;7.83;;;4.40;;
3769;SDS011;1900;48.890;9.190;2024-03-17T13:05:57;4.93;;;4.43;;
3769;SDS011;1900;48.890;9.190;2024-03-17T13:08:22;6.70;;;4.50;;
3769;SDS011;1900;48.890;9.190;2024-03-17T13:10:48;8.27;;;4.30;;
3769;SDS011;1900;48.890;9.190;2024-03-17T13:13:14;6.30;;;3.97;;
3769;SDS011;1900;48.890;9.190;2024-03-17T13:15:42;5.40;;;4.63;;
3769;SDS011;1900;48.890;9.190;2024-03-17T13:18:09;5.00;;;3.83;;
3769;SDS011;1900;48.890;9.190;2024-03-17T13:20:34;4.60;;;3.67;;
3769;SDS011;1900;48.890;9.190;2024-03-17T13:23:01;5.20;;;4.20;;
3769;SDS011;1900;48.890;9.190;2024-03-17T13:25:30;5.00;;;3.97;;
3769;SDS011;1900;48.890;9.190;2024-03-17T13:28:02;7.10;;;4.53;;
3769;SDS011;1900;48.890;9.190;2024-03-17T13:30:28;8.77;;;4.80;;
3769;SDS011;1900;48.890;9.190;2024-03-17T13:32:55;10.73;;;4.00;;
3769;SDS011;1900;48.890;9.190;2024-03-17T13:35:27;6.87;;;4.37;;
3769;SDS011;1900;48.890;9.190;2024-03-17T13:37:55;6.63;;;4.60;;
3769;SDS011;1900;48.890;9.190;2024-03-17T13:40:25;4.40;;;3.93;;
3769;SDS011;1900;48.890;9.190;2024-03-17T13:42:52;7.20;;;4.30;;
3769;SDS011;1900;48.890;9.190;2024-03-17T13:45:20;5.87;;;4.77;;
3769;SDS011;1900;48.890;9.190;2024-03-17T13:47:47;7.53;;;4.17;;
3769;SDS011;1900;48.890;9.190;2024-03-17T13:50:21;6.30;;;3.87;;
3769;SDS011;1900;48.890;9.190;2024-03-17T13:52:47;5.43;;;4.30;;
3769;SDS011;1900;48.890;9.190;2024-03-17T13:55:16;5.03;;;3.97;;
3769;SDS011;1900;48.890;9.190;2024-03-17T13:57:49;5.87;;;4.43;;
3769;SDS011;1900;48.890;9.190;2024-03-17T14:00:25;6.33;;;3.67;;
3769;SDS011;1900;48.890;9.190;2024-03-17T14:02:52;10.67;;;4.63;;
3769;SDS011;1900;48.890;9.190;2024-03-17T14:05:20;4.83;;;3.97;;
3769;SDS011;1900;48.890;9.190;2024-03-17T14:07:47;9.00;;;4.80;;
3769;SDS011;1900;48.890;9.190;2024-03-17T14:10:14;5.23;;;4.20;;
3769;SDS011;1900;48.890;9.190;2024-03-17T14:12:41;7.50;;;4.60;;
3769;SDS011;1900;48.890;9.190;2024-03-17T14:15:08;7.93;;;4.20;;
3769;SDS011;1900;48.890;9.190;2024-03-17T14:17:38;8.13;;;4.50;;
3769;SDS011;1900;48.890;9.190;2024-03-17T14:20:08;5.37;;;3.80;;
3769;SDS011;1900;48.890;9.190;2024-03-17T14:22:37;4.87;;;4.03;;
3769;SDS011;1900;48.890;9.190;2024-03-17T14:25:07;7.87;;;4.10;;
3769;SDS011;1900;48.890;9.190;2024-03-17T14:27:35;7.37;;;4.33;;
3769;SDS011;1900;48.890;9.190;2024-03-17T14:30:01;4.70;;;4.17;;
3769;SDS011;1900;48.890;9.190;2024-03-17T14:32:29;7.73;;;4.63;;
3769;SDS011;1900;48.890;9.190;2024-03-17T14:34:55;5.07;;;3.70;;
3769;SDS011;1900;48.890;9.190;2024-03-17T14:37:21;6.00;;;3.93;;
3769;SDS011;1900;48.890;9.190;2024-03-17T14:39:48;6.63;;;4.20;;
3769;SDS011;1900;48.890;9.190;2024-03-17T14:42:15;9.10;;;3.93;;
3769;SDS011;1900;48.890;9.190;2024-03-17T14:44:40;4.80;;;4.17;;
3769;SDS011;1900;48.890;9.190;2024-03-17T14:47:07;5.60;;;3.90;;
3769;SDS011;1900;48.890;9.190;2024-03-17T14:49:33;4.43;;;3.83;;
3769;SDS011;1900;48.890;9.190;2024-03-17T14:51:59;6.27;;;3.97;;
3769;SDS011;1900;48.890;9.190;2024-03-17T14:54:25;7.80;;;4.23;;
3769;SDS011;1900;48.890;9.190;2024-03-17T14:56:51;5.70;;;4.20;;
3769;SDS011;1900;48.890;9.190;2024-03-17T14:59:19;9.00;;;4.70;;
3769;SDS011;1900;48.890;9.190;2024-03-17T15:01:45;6.97;;;3.83;;
3769;SDS011;1900;48.890;9.190;2024-03-17T15:04:12;5.37;;;4.00;;
3769;SDS011;1900;48.890;9.190;2024-03-17T15:06:39;4.67;;;3.70;;
3769;SDS011;1900;48.890;9.190;2024-03-17T15:09:06;7.30;;;4.30;;
3769;SDS011;1900;48.890;9.190;2024-03-17T15:11:33;6.27;;;4.07;;
3769;SDS011;1900;48.890;9.190;2024-03-17T15:13:59;5.33;;;4.33;;
3769;SDS011;1900;48.890;9.190;2024-03-17T15:16:25;5.63;;;4.27;;
3769;SDS011;1900;48.890;9.190;2024-03-17T15:18:50;5.77;;;4.07;;
3769;SDS011;1900;48.890;9.190;2024-03-17T15:21:17;4.13;;;3.73;;
3769;SDS011;1900;48.890;9.190;2024-03-17T15:23:44;8.23;;;4.03;;
3769;SDS011;1900;48.890;9.190;2024-03-17T15:26:10;5.77;;;3.90;;
3769;SDS011;1900;48.890;9.190;2024-03-17T15:28:40;5.10;;;4.00;;
3769;SDS011;1900;48.890;9.190;2024-03-17T15:31:08;6.37;;;4.83;;
3769;SDS011;1900;48.890;9.190;2024-03-17T15:33:34;6.80;;;4.67;;
3769;SDS011;1900;48.890;9.190;2024-03-17T15:36:05;4.10;;;3.37;;
3769;SDS011;1900;48.890;9.190;2024-03-17T15:38:34;5.77;;;3.30;;